Time;durP1;ratioP1;P1;durP2;ratioP2;P2;SDS_P1;SDS_P2;PMS_P1;PMS_P2;Temp;Humidity;BMP_temperature;BMP_pressure;BME280_temperature;BME280_humidity;BME280_pressure;Samples;Min_cycle;Max_cycle;Signal;HPM_P1;HPM_P2
2022/03/27 00:02:20;;;;;;;7.57;5.25;;;;;;;16.97;27.50;97606.41;5132855;27;20050;-33
2022/03/27 00:04:46;;;;;;;7.18;5.15;;;;;;;16.90;28.07;97606.66;5134849;27;20027;-32
2022/03/27 00:07:12;;;;;;;7.90;5.35;;;;;;;16.88;27.66;97607.06;5134202;27;20474;-32
2022/03/27 00:09:38;;;;;;;8.13;5.35;;;;;;;16.97;27.93;97608.38;5116044;27;20038;-33
2022/03/27 00:12:05;;;;;;;7.43;5.40;;;;;;;16.93;27.58;97605.00;5134888;27;20099;-32
2022/03/27 00:14:30;;;;;;;7.82;5.20;;;;;;;16.91;27.58;97601.94;5134759;27;20475;-32
2022/03/27 00:16:57;;;;;;;7.03;5.57;;;;;;;16.95;27.42;97600.59;5134456;27;20079;-32
2022/03/27 00:19:23;;;;;;;6.53;5.30;;;;;;;16.88;27.73;97614.53;5134555;27;20368;-33
2022/03/27 00:21:49;;;;;;;9.10;5.70;;;;;;;16.94;27.63;97604.53;5135003;27;20034;-32
2022/03/27 00:24:15;;;;;;;7.70;5.40;;;;;;;16.90;27.65;97603.13;5133655;27;20027;-32
2022/03/27 00:26:41;;;;;;;6.30;5.25;;;;;;;16.91;27.74;97602.69;5134450;27;20057;-32
2022/03/27 00:29:07;;;;;;;7.35;5.03;;;;;;;16.96;27.57;97604.88;5115990;27;20019;-32
2022/03/27 00:31:35;;;;;;;7.72;5.47;;;;;;;16.94;27.73;97601.06;5134419;27;20023;-33
2022/03/27 00:34:02;;;;;;;9.40;5.50;;;;;;;16.92;27.93;97598.75;5134541;27;20023;-33
2022/03/27 00:36:28;;;;;;;7.07;5.07;;;;;;;16.92;27.97;97600.72;5134504;27;20521;-32
2022/03/27 00:38:54;;;;;;;7.85;5.40;;;;;;;17.00;27.96;97599.28;5134498;27;20149;-32
2022/03/27 00:41:20;;;;;;;9.25;5.30;;;;;;;17.02;27.97;97603.13;5133256;27;20035;-32
2022/03/27 00:43:45;;;;;;;8.25;5.45;;;;;;;17.04;27.77;97595.22;5115979;28;20451;-33
2022/03/27 00:46:12;;;;;;;7.18;5.30;;;;;;;17.01;27.95;97600.81;5134114;28;20019;-32
2022/03/27 00:48:38;;;;;;;7.40;5.47;;;;;;;17.03;27.76;97593.69;5133189;28;20023;-33
2022/03/27 00:51:04;;;;;;;7.68;5.25;;;;;;;17.00;27.96;97593.81;5116743;27;20382;-32
2022/03/27 00:53:30;;;;;;;7.70;5.55;;;;;;;16.98;27.79;97590.72;5136553;27;20485;-33
2022/03/27 00:55:56;;;;;;;7.63;5.22;;;;;;;17.00;27.86;97583.59;5137882;27;20027;-32
2022/03/27 00:58:22;;;;;;;7.97;5.43;;;;;;;16.96;27.87;97582.94;5138115;27;20027;-33
2022/03/27 01:00:49;;;;;;;7.47;5.18;;;;;;;16.94;27.80;97584.63;5128163;27;20388;-33
2022/03/27 01:03:16;;;;;;;9.15;5.35;;;;;;;16.95;27.80;97572.44;5117903;28;20113;-32
2022/03/27 01:05:44;;;;;;;6.88;4.88;;;;;;;16.89;27.78;97580.44;5117907;28;20050;-32
2022/03/27 01:08:12;;;;;;;8.75;5.35;;;;;;;16.85;27.87;97580.56;5117553;28;20026;-33
2022/03/27 01:10:39;;;;;;;8.15;5.43;;;;;;;16.93;27.76;97569.38;5117642;28;20057;-32
2022/03/27 01:13:12;;;;;;;7.72;5.35;;;;;;;16.84;27.90;97565.31;5117810;28;20531;-32
2022/03/27 01:15:37;;;;;;;;;;;;;;;16.84;27.97;97565.31;5117987;28;20027;-33
2022/03/27 01:18:03;;;;;;;8.23;5.22;;;;;;;16.74;27.86;97562.91;5117905;28;19907;-33
2022/03/27 01:20:33;;;;;;;9.20;6.20;;;;;;;16.77;27.71;97564.78;5117427;27;20153;-32
2022/03/27 01:22:59;;;;;;;7.72;5.97;;;;;;;16.87;27.60;97564.44;5117475;28;20110;-33
2022/03/27 01:25:24;;;;;;;6.63;5.18;;;;;;;16.88;27.65;97560.50;5117671;28;20023;-32
2022/03/27 01:27:50;;;;;;;7.82;5.50;;;;;;;16.87;27.83;97558.97;5117616;28;20023;-32
2022/03/27 01:30:16;;;;;;;6.40;5.30;;;;;;;16.90;27.65;97556.56;5116804;28;20027;-32
2022/03/27 01:32:41;;;;;;;8.38;5.35;;;;;;;16.81;27.62;97543.53;5117069;28;20058;-32
2022/03/27 01:35:08;;;;;;;8.68;5.85;;;;;;;16.88;27.60;97548.78;5116460;28;20023;-32
2022/03/27 01:37:33;;;;;;;8.60;5.25;;;;;;;16.89;27.51;97539.34;5117227;28;20027;-33
2022/03/27 01:39:59;;;;;;;10.95;5.80;;;;;;;16.84;27.54;97540.66;5117322;28;20034;-33
2022/03/27 01:42:24;;;;;;;7.60;5.47;;;;;;;16.83;27.61;97547.34;5117401;28;20028;-33
2022/03/27 01:44:50;;;;;;;9.07;5.25;;;;;;;16.85;27.43;97547.69;5117069;28;20030;-32
2022/03/27 01:47:16;;;;;;;9.77;5.82;;;;;;;16.87;27.46;97542.53;5117074;28;20020;-32
2022/03/27 01:49:42;;;;;;;8.07;5.53;;;;;;;16.91;27.64;97549.88;5116925;28;20054;-32
2022/03/27 01:52:07;;;;;;;8.82;5.82;;;;;;;16.90;27.74;97554.59;5117001;28;20035;-32
2022/03/27 01:54:34;;;;;;;6.30;5.20;;;;;;;16.94;27.59;97563.44;5116861;28;20464;-33
2022/03/27 01:57:00;;;;;;;7.25;5.63;;;;;;;16.88;27.54;97563.25;5116760;28;20023;-32
2022/03/27 01:59:25;;;;;;;7.80;5.65;;;;;;;16.85;27.69;97555.13;5116704;28;20031;-33
2022/03/27 02:01:51;;;;;;;7.13;5.50;;;;;;;16.95;27.64;97559.50;5135181;27;20047;-32
2022/03/27 02:04:17;;;;;;;7.00;5.53;;;;;;;16.98;27.44;97557.84;5137294;27;20027;-32
2022/03/27 02:06:43;;;;;;;7.20;5.95;;;;;;;16.96;27.47;97554.78;5137513;27;20047;-33
2022/03/27 02:09:10;;;;;;;9.00;5.80;;;;;;;16.93;27.72;97555.69;5137131;27;20024;-32
2022/03/27 02:11:36;;;;;;;7.68;6.00;;;;;;;16.92;27.86;97554.16;5137111;27;20387;-33
2022/03/27 02:14:02;;;;;;;8.35;5.78;;;;;;;16.76;28.01;97553.06;5137227;27;20023;-33
2022/03/27 02:16:28;;;;;;;9.57;6.00;;;;;;;16.90;27.94;97551.06;5137119;27;20022;-32
2022/03/27 02:18:53;;;;;;;7.72;6.07;;;;;;;16.90;27.95;97548.34;5137302;27;20561;-32
2022/03/27 02:21:20;;;;;;;7.47;5.40;;;;;;;16.90;28.19;97545.59;5136805;27;20038;-33
2022/03/27 02:23:46;;;;;;;7.38;5.78;;;;;;;16.97;27.92;97535.16;5136931;27;20023;-33
2022/03/27 02:26:11;;;;;;;8.15;6.43;;;;;;;16.90;28.17;97540.13;5136618;27;20445;-33
2022/03/27 02:28:39;;;;;;;7.90;5.47;;;;;;;16.83;28.18;97543.84;5136713;27;20102;-32
2022/03/27 02:31:05;;;;;;;8.32;5.80;;;;;;;16.80;28.31;97531.81;5118349;27;20478;-32
2022/03/27 02:33:31;;;;;;;8.50;5.50;;;;;;;16.80;28.24;97536.53;5136542;27;20025;-33
2022/03/27 02:35:56;;;;;;;7.32;5.85;;;;;;;16.90;27.96;97538.16;5136847;27;20416;-32
2022/03/27 02:38:22;;;;;;;8.57;5.72;;;;;;;16.85;28.02;97531.22;5136526;27;20023;-32
2022/03/27 02:40:48;;;;;;;7.50;6.07;;;;;;;16.85;28.02;97536.72;5136577;27;20441;-32
2022/03/27 02:43:14;;;;;;;8.75;5.95;;;;;;;16.92;27.76;97527.50;5136324;27;20505;-32
2022/03/27 02:45:47;;;;;;;7.97;6.13;;;;;;;16.95;27.87;97525.84;5136375;27;20054;-33
2022/03/27 02:48:13;;;;;;;8.40;6.13;;;;;;;16.93;27.80;97528.28;5136272;27;20015;-33
2022/03/27 02:50:40;;;;;;;8.52;5.65;;;;;;;16.92;27.77;97521.25;5136669;27;20026;-33
2022/03/27 02:53:07;;;;;;;6.90;5.82;;;;;;;16.84;27.95;97531.66;5136366;27;20442;-32
2022/03/27 02:55:32;;;;;;;10.85;6.45;;;;;;;16.93;27.65;97529.03;5136585;27;20042;-32
2022/03/27 02:57:58;;;;;;;8.32;5.82;;;;;;;16.88;27.65;97532.34;5136497;27;20383;-32
2022/03/27 03:00:25;;;;;;;7.47;5.60;;;;;;;16.85;27.82;97520.28;5136180;27;20050;-32
2022/03/27 03:02:51;;;;;;;8.95;5.95;;;;;;;16.84;27.68;97529.69;5136266;27;20063;-32
2022/03/27 03:05:17;;;;;;;8.52;6.00;;;;;;;16.85;27.57;97519.50;5117668;27;20083;-32
2022/03/27 03:07:43;;;;;;;7.40;5.72;;;;;;;16.77;27.59;97521.72;5135889;27;20519;-32
2022/03/27 03:10:09;;;;;;;7.30;5.80;;;;;;;16.88;27.61;97524.88;5135831;27;20023;-32
2022/03/27 03:12:35;;;;;;;7.32;5.53;;;;;;;16.88;27.62;97522.13;5135230;27;20107;-32
2022/03/27 03:15:00;;;;;;;7.78;6.13;;;;;;;16.88;27.48;97522.13;5135868;27;20102;-32
2022/03/27 03:17:26;;;;;;;9.50;6.20;;;;;;;16.84;27.54;97523.44;5135846;27;20077;-32
2022/03/27 03:19:52;;;;;;;9.80;6.18;;;;;;;16.72;27.85;97526.97;5135831;27;20026;-32
2022/03/27 03:22:18;;;;;;;7.63;5.50;;;;;;;16.79;27.58;97529.50;5135571;27;20027;-32
2022/03/27 03:24:45;;;;;;;6.88;5.70;;;;;;;16.82;27.51;97526.63;5135951;27;20035;-33
2022/03/27 03:27:10;;;;;;;7.53;5.82;;;;;;;16.80;27.61;97534.53;5135759;27;20023;-32
2022/03/27 03:29:36;;;;;;;8.15;5.60;;;;;;;16.87;27.48;97523.34;5135372;27;20030;-34
2022/03/27 03:32:02;;;;;;;8.18;5.60;;;;;;;16.94;27.62;97518.84;5135562;27;20469;-32
2022/03/27 03:34:28;;;;;;;7.05;5.75;;;;;;;16.68;27.46;97529.09;5135365;27;20075;-32
2022/03/27 03:36:53;;;;;;;9.55;5.90;;;;;;;16.72;27.57;97518.75;5135429;27;20023;-32
2022/03/27 03:39:19;;;;;;;11.00;5.90;;;;;;;16.77;27.49;97521.72;5135409;27;20034;-32
2022/03/27 03:41:45;;;;;;;8.63;5.53;;;;;;;16.74;27.50;97525.34;5135246;27;20023;-33
2022/03/27 03:44:11;;;;;;;7.50;5.80;;;;;;;16.82;27.49;97523.13;5135248;27;20088;-32
2022/03/27 03:46:36;;;;;;;8.40;5.63;;;;;;;16.81;27.62;97524.34;5135063;27;20408;-32
2022/03/27 03:49:06;;;;;;;7.95;6.30;;;;;;;16.85;27.36;97514.78;5135468;27;20028;-33
2022/03/27 03:51:35;;;;;;;6.97;5.35;;;;;;;16.88;27.32;97516.66;5135139;27;20043;-32
2022/03/27 03:54:07;;;;;;;7.95;5.50;;;;;;;16.80;27.38;97515.38;5135082;27;20372;-32
2022/03/27 03:56:34;;;;;;;7.30;5.28;;;;;;;16.91;27.50;97519.72;5135181;27;20019;-32
2022/03/27 03:59:00;;;;;;;7.55;5.80;;;;;;;16.76;27.39;97519.41;5135087;27;20152;-32
2022/03/27 04:01:25;;;;;;;7.18;5.10;;;;;;;16.74;27.22;97511.63;5134772;27;20114;-32
2022/03/27 04:03:51;;;;;;;6.65;5.20;;;;;;;16.76;27.36;97506.50;5134990;27;20099;-32
2022/03/27 04:06:17;;;;;;;6.50;5.25;;;;;;;16.73;27.41;97510.09;5116530;27;20432;-32
2022/03/27 04:08:42;;;;;;;8.43;5.30;;;;;;;16.79;27.11;97496.63;5135166;27;20160;-32
2022/03/27 04:11:14;;;;;;;6.03;5.03;;;;;;;16.79;27.37;97494.66;5134642;27;20023;-32
2022/03/27 04:13:40;;;;;;;7.47;5.75;;;;;;;16.82;27.12;97496.50;5134832;27;20023;-32
2022/03/27 04:16:06;;;;;;;7.35;5.70;;;;;;;16.85;27.05;97492.88;5134701;27;20026;-32
2022/03/27 04:18:31;;;;;;;7.30;5.72;;;;;;;16.74;27.32;97495.19;5134698;27;20099;-33
2022/03/27 04:20:57;;;;;;;7.15;5.47;;;;;;;16.66;26.88;97488.44;5134620;27;20030;-32
2022/03/27 04:23:23;;;;;;;8.02;5.18;;;;;;;16.74;27.08;97478.00;5134630;27;20092;-32
2022/03/27 04:25:48;;;;;;;6.78;5.22;;;;;;;16.77;26.96;97494.31;5134499;27;20381;-33
2022/03/27 04:28:14;;;;;;;9.05;5.82;;;;;;;16.77;26.90;97496.31;5134412;27;20033;-32
2022/03/27 04:30:40;;;;;;;7.03;5.05;;;;;;;16.78;26.81;97498.59;5134555;27;20015;-33
2022/03/27 04:33:07;;;;;;;7.25;5.05;;;;;;;16.80;26.80;97498.94;5134507;27;20499;-32
2022/03/27 04:35:32;;;;;;;8.63;5.65;;;;;;;16.80;26.60;97493.44;5116456;27;20023;-32
2022/03/27 04:37:58;;;;;;;7.85;5.55;;;;;;;16.84;26.86;97491.34;5134398;27;20095;-32
2022/03/27 04:40:24;;;;;;;6.60;5.43;;;;;;;16.77;26.64;97491.59;5116018;28;20027;-32
2022/03/27 04:42:49;;;;;;;8.10;4.93;;;;;;;16.80;26.77;97487.97;5134497;27;20025;-32
2022/03/27 04:45:15;;;;;;;7.25;5.40;;;;;;;16.66;26.51;97493.91;5134323;27;20402;-32
2022/03/27 04:47:41;;;;;;;6.68;4.75;;;;;;;16.70;26.69;97488.28;5134260;28;20023;-32
2022/03/27 04:50:08;;;;;;;6.07;5.07;;;;;;;16.77;26.54;97494.31;5134528;28;20019;-32
2022/03/27 04:52:34;;;;;;;7.18;5.35;;;;;;;16.82;26.52;97491.00;5134288;28;20030;-33
2022/03/27 04:55:00;;;;;;;6.65;4.93;;;;;;;16.81;26.45;97492.22;5134243;28;20098;-33
2022/03/27 04:57:32;;;;;;;8.18;5.63;;;;;;;16.78;26.92;97501.34;5134006;28;20103;-33
2022/03/27 04:59:58;;;;;;;9.05;4.97;;;;;;;16.79;26.85;97497.41;5134122;28;20047;-32
2022/03/27 05:02:24;;;;;;;6.90;5.05;;;;;;;16.76;26.64;97497.50;5134273;28;20091;-32
2022/03/27 05:04:49;;;;;;;6.95;5.00;;;;;;;16.77;26.75;97499.81;5134103;28;20493;-33
2022/03/27 05:07:15;;;;;;;8.35;5.20;;;;;;;16.71;26.77;97504.28;5134147;28;20058;-32
2022/03/27 05:09:40;;;;;;;5.75;4.80;;;;;;;16.78;26.51;97500.56;5133927;28;20031;-32
2022/03/27 05:12:07;;;;;;;7.20;4.80;;;;;;;16.58;26.65;97503.50;5134352;28;20027;-32
2022/03/27 05:14:33;;;;;;;8.98;5.18;;;;;;;16.74;26.56;97497.94;5133945;28;20015;-32
2022/03/27 05:16:59;;;;;;;8.15;5.20;;;;;;;16.74;26.29;97502.66;5133961;28;20015;-32
2022/03/27 05:19:24;;;;;;;6.93;4.95;;;;;;;16.73;26.32;97509.34;5134036;28;20023;-32
2022/03/27 05:21:50;;;;;;;8.05;5.25;;;;;;;16.79;26.51;97511.09;5133982;28;20027;-32
2022/03/27 05:24:16;;;;;;;6.35;4.70;;;;;;;16.86;26.51;97510.84;5134119;28;20030;-32
2022/03/27 05:26:41;;;;;;;7.30;4.65;;;;;;;16.80;26.40;97506.38;5134226;28;20471;-32
2022/03/27 05:29:10;;;;;;;6.60;5.00;;;;;;;16.76;26.48;97520.19;5134210;28;20027;-32
2022/03/27 05:31:36;;;;;;;8.38;5.03;;;;;;;16.74;26.54;97511.63;5133747;28;20030;-32
2022/03/27 05:34:03;;;;;;;6.93;4.70;;;;;;;16.79;26.20;97513.06;5134207;28;20023;-32
2022/03/27 05:36:29;;;;;;;7.00;4.97;;;;;;;16.76;26.39;97517.44;5117520;27;20366;-32
2022/03/27 05:38:55;;;;;;;7.55;5.00;;;;;;;16.73;26.13;97520.28;5137641;27;20080;-32
2022/03/27 05:41:21;;;;;;;6.72;4.78;;;;;;;16.75;26.06;97518.66;5119195;27;20027;-32
2022/03/27 05:43:47;;;;;;;5.68;4.53;;;;;;;16.76;26.38;97525.66;5137674;27;20023;-32
2022/03/27 05:46:12;;;;;;;6.63;4.38;;;;;;;16.82;26.44;97532.09;5137685;27;20018;-32
2022/03/27 05:48:38;;;;;;;5.53;4.55;;;;;;;16.80;26.44;97536.53;5137275;27;20532;-32
2022/03/27 05:51:04;;;;;;;6.18;4.43;;;;;;;16.82;25.99;97539.56;5137507;27;20050;-32
2022/03/27 05:53:31;;;;;;;5.68;4.65;;;;;;;16.77;26.05;97535.41;5137524;27;20067;-33
2022/03/27 05:55:57;;;;;;;5.82;4.75;;;;;;;16.73;26.11;97537.50;5137325;27;20033;-32
2022/03/27 05:58:23;;;;;;;6.97;4.80;;;;;;;16.81;25.94;97540.78;5137391;27;20021;-33
2022/03/27 06:00:51;;;;;;;7.18;4.70;;;;;;;16.76;26.37;97535.84;5137290;27;20619;-32
2022/03/27 06:03:16;;;;;;;7.38;4.57;;;;;;;16.75;26.44;97543.31;5137205;27;20019;-32
2022/03/27 06:05:42;;;;;;;5.55;4.50;;;;;;;16.73;26.02;97551.19;5137405;27;20107;-32
2022/03/27 06:08:08;;;;;;;7.03;4.68;;;;;;;16.69;26.02;97552.53;5137265;27;20023;-32
2022/03/27 06:10:35;;;;;;;6.50;5.07;;;;;;;16.73;26.11;97550.44;5137067;27;20027;-33
2022/03/27 06:13:02;;;;;;;6.20;4.90;;;;;;;16.80;25.74;97558.44;5137136;27;20076;-32
2022/03/27 06:15:30;;;;;;;6.00;4.72;;;;;;;16.75;25.69;97553.50;5137346;27;20455;-32
2022/03/27 06:17:57;;;;;;;7.22;4.35;;;;;;;16.69;25.75;97558.75;5133242;27;20039;-32
2022/03/27 06:20:28;;;;;;;7.47;4.85;;;;;;;16.67;25.86;97561.19;5135013;27;20023;-32
2022/03/27 06:22:55;;;;;;;5.70;4.35;;;;;;;16.71;25.63;97566.53;5126906;27;20031;-33
2022/03/27 06:25:24;;;;;;;5.93;4.57;;;;;;;16.74;25.69;97563.69;5114334;28;20028;-32
2022/03/27 06:27:50;;;;;;;8.05;4.45;;;;;;;16.71;25.75;97572.00;5114338;28;20042;-33
2022/03/27 06:30:18;;;;;;;6.57;4.40;;;;;;;16.61;25.54;97575.81;5114025;28;20024;-32
2022/03/27 06:32:45;;;;;;;6.10;4.88;;;;;;;16.72;25.92;97568.84;5114205;28;20117;-32
2022/03/27 06:35:12;;;;;;;6.30;4.63;;;;;;;16.71;25.61;97567.28;5121279;27;20034;-32
2022/03/27 06:37:39;;;;;;;6.45;4.68;;;;;;;16.77;25.69;97573.00;5134849;27;20835;-32
2022/03/27 06:40:06;;;;;;;6.45;4.63;;;;;;;16.70;25.70;97565.75;5134700;27;20023;-32
2022/03/27 06:42:32;;;;;;;6.43;4.45;;;;;;;16.75;25.95;97570.69;5134286;27;20440;-32
2022/03/27 06:44:58;;;;;;;7.35;4.97;;;;;;;16.59;25.35;97565.31;5134500;27;20023;-33
2022/03/27 06:47:24;;;;;;;6.07;4.75;;;;;;;16.67;25.37;97572.13;5133503;27;20023;-32
2022/03/27 06:49:51;;;;;;;6.28;4.57;;;;;;;16.73;25.55;97577.81;5133188;27;20032;-32
2022/03/27 06:52:17;;;;;;;6.93;4.10;;;;;;;16.64;25.50;97570.28;5132692;27;20529;-33
2022/03/27 06:54:44;;;;;;;5.22;4.10;;;;;;;16.73;25.15;97586.81;5114853;27;20374;-32
2022/03/27 06:57:10;;;;;;;4.70;4.05;;;;;;;16.70;25.34;97573.97;5134019;27;20027;-32
2022/03/27 07:05:05;;;;;;;5.90;4.40;;;;;;;16.71;25.36;97574.75;5133841;27;20079;-33
2022/03/27 07:07:32;;;;;;;6.95;4.53;;;;;;;16.68;25.00;97573.69;5134073;27;20079;-32
2022/03/27 07:09:57;;;;;;;6.35;4.50;;;;;;;16.73;25.08;97578.59;5133974;27;20027;-33
2022/03/27 07:12:24;;;;;;;6.03;4.63;;;;;;;16.59;25.07;97579.00;5118759;27;20025;-33
2022/03/27 07:14:51;;;;;;;6.75;4.88;;;;;;;16.75;24.97;97578.91;5113080;28;20152;-32
2022/03/27 07:17:18;;;;;;;5.13;4.47;;;;;;;16.69;25.08;97580.66;5113173;28;20440;-32
2022/03/27 07:19:44;;;;;;;6.85;4.80;;;;;;;16.68;24.80;97572.91;5113269;28;20020;-33
2022/03/27 07:22:09;;;;;;;8.02;5.05;;;;;;;16.72;24.97;97574.31;5112880;28;20073;-32
2022/03/27 07:24:35;;;;;;;7.30;5.05;;;;;;;16.65;25.25;97582.75;5113199;28;20035;-32
2022/03/27 07:27:01;;;;;;;6.78;5.07;;;;;;;16.68;25.49;97578.38;5113105;28;20027;-32
2022/03/27 07:29:27;;;;;;;6.32;4.68;;;;;;;16.65;25.01;97574.53;5112532;28;20038;-32
2022/03/27 07:31:52;;;;;;;6.10;5.03;;;;;;;16.71;25.13;97578.25;5113150;28;20046;-32
2022/03/27 07:34:18;;;;;;;5.72;4.43;;;;;;;16.78;25.46;97563.59;5111507;28;20475;-32
2022/03/27 07:36:44;;;;;;;6.45;4.13;;;;;;;16.75;25.68;97569.94;5112895;28;20024;-32
2022/03/27 07:39:11;;;;;;;6.68;4.43;;;;;;;16.75;25.25;97572.69;5112845;28;20023;-32
2022/03/27 07:41:39;;;;;;;5.80;4.60;;;;;;;16.77;25.44;97568.28;5112499;28;20033;-33
2022/03/27 07:44:06;;;;;;;6.97;4.97;;;;;;;16.85;25.47;97577.81;5112833;28;20027;-33
2022/03/27 07:46:32;;;;;;;6.22;4.68;;;;;;;16.78;25.29;97578.06;5112825;28;20532;-33
2022/03/27 07:48:57;;;;;;;8.48;4.55;;;;;;;16.79;25.60;97574.09;5112771;28;20047;-32
2022/03/27 07:51:23;;;;;;;9.15;4.90;;;;;;;16.71;24.74;97566.53;5112791;28;20476;-32
2022/03/27 07:53:49;;;;;;;9.20;4.55;;;;;;;16.81;25.76;97566.19;5112373;28;20059;-32
2022/03/27 07:56:14;;;;;;;8.68;4.65;;;;;;;16.48;23.58;97564.88;5112678;28;20034;-33
2022/03/27 07:58:40;;;;;;;7.10;4.88;;;;;;;16.70;24.29;97560.28;5112224;28;20463;-32
2022/03/27 08:01:06;;;;;;;5.70;4.30;;;;;;;16.75;25.55;97556.25;5112100;28;20483;-32
2022/03/27 08:03:33;;;;;;;7.45;4.88;;;;;;;16.79;25.39;97556.91;5112382;28;20391;-32
2022/03/27 08:06:00;;;;;;;6.28;4.65;;;;;;;16.78;24.69;97555.38;5112071;28;20027;-32
2022/03/27 08:08:26;;;;;;;5.32;4.38;;;;;;;16.84;25.92;97551.63;5112293;28;20045;-32
2022/03/27 08:10:52;;;;;;;5.28;4.45;;;;;;;16.84;25.66;97559.84;5114020;27;20110;-32
2022/03/27 08:13:17;;;;;;;7.68;4.55;;;;;;;16.77;24.36;97542.88;5132662;27;20023;-32
2022/03/27 08:15:43;;;;;;;5.68;4.40;;;;;;;16.93;25.81;97550.19;5132919;27;20030;-32
2022/03/27 08:18:12;;;;;;;8.10;4.80;;;;;;;16.85;25.67;97550.41;5132532;27;20023;-32
2022/03/27 08:20:39;;;;;;;6.32;4.38;;;;;;;16.86;26.49;97546.47;5134339;27;20019;-32
2022/03/27 08:23:04;;;;;;;8.43;5.25;;;;;;;16.71;25.11;97542.66;5134696;27;20025;-32
2022/03/27 08:28:15;;;;;;;5.75;4.50;;;;;;;16.77;26.26;97542.88;5134792;27;20057;-33
2022/03/27 08:30:41;;;;;;;7.88;5.20;;;;;;;16.82;26.20;97540.31;5134452;27;20039;-32
2022/03/27 08:33:07;;;;;;;8.13;4.90;;;;;;;16.71;25.07;97539.13;5131778;27;20061;-32
2022/03/27 08:35:32;;;;;;;7.57;4.60;;;;;;;16.92;26.29;97543.19;5114048;28;20510;-32
2022/03/27 08:37:58;;;;;;;6.88;4.05;;;;;;;16.94;26.36;97546.25;5113915;28;20510;-33
2022/03/27 08:40:23;;;;;;;8.32;5.05;;;;;;;16.83;25.70;97541.09;5114014;28;20023;-32
2022/03/27 08:42:50;;;;;;;10.93;5.28;;;;;;;16.86;25.96;97540.22;5113765;28;20080;-32
2022/03/27 08:45:16;;;;;;;6.05;4.30;;;;;;;16.90;26.52;97546.38;5095913;28;20031;-32
2022/03/27 08:47:42;;;;;;;9.68;6.10;;;;;;;16.77;23.48;97538.16;5113888;28;20022;-33
2022/03/27 08:50:20;;;;;;;9.15;5.70;;;;;;;16.65;26.51;97541.69;5113624;28;20043;-32
2022/03/27 08:52:57;;;;;;;6.13;5.07;;;;;;;16.88;25.48;97552.28;5113641;28;20364;-32
2022/03/27 08:55:35;;;;;;;7.40;4.82;;;;;;;16.85;24.99;97544.94;5114021;28;20047;-33
2022/03/27 08:58:01;;;;;;;8.65;5.35;;;;;;;16.75;23.55;97548.78;5113886;28;20027;-32
2022/03/27 09:00:29;;;;;;;5.97;4.60;;;;;;;16.92;26.63;97559.63;5113544;28;20445;-33
2022/03/27 09:03:00;;;;;;;7.97;4.63;;;;;;;17.00;26.26;97547.22;5113596;28;20107;-32
2022/03/27 09:05:26;;;;;;;7.03;5.10;;;;;;;16.88;26.57;97555.03;5113659;28;20055;-32
2022/03/27 09:07:54;;;;;;;6.22;4.85;;;;;;;16.77;26.55;97553.84;5113707;28;20387;-32
2022/03/27 09:10:21;;;;;;;5.45;4.15;;;;;;;16.97;26.32;97550.84;5113803;28;20046;-32
2022/03/27 09:12:47;;;;;;;7.38;5.13;;;;;;;16.88;26.29;97552.28;5117334;28;20023;-33
2022/03/27 09:15:13;;;;;;;7.10;4.82;;;;;;;16.80;26.67;97547.47;5118137;28;20410;-32
2022/03/27 09:18:00;;;;;;;7.40;4.90;;;;;;;16.93;26.37;97550.19;5117654;28;20058;-33
2022/03/27 09:20:46;;;;;;;5.97;4.63;;;;;;;16.97;25.65;97556.31;5117725;28;20355;-33
2022/03/27 09:23:27;;;;;;;8.00;4.53;;;;;;;16.74;24.62;97549.22;5099214;28;20107;-32
2022/03/27 09:25:55;;;;;;;7.35;4.93;;;;;;;16.83;25.93;97549.31;5117478;28;20028;-32
2022/03/27 09:28:22;;;;;;;9.05;5.30;;;;;;;16.85;23.76;97555.91;5099023;28;20085;-32
2022/03/27 09:30:47;;;;;;;8.57;5.10;;;;;;;16.81;26.55;97549.75;5117469;28;20024;-32
2022/03/27 09:33:30;;;;;;;9.00;5.38;;;;;;;16.88;24.98;97560.50;5117273;28;20388;-32
2022/03/27 09:36:25;;;;;;;6.82;4.47;;;;;;;16.97;26.39;97570.00;5117496;28;20098;-32
2022/03/27 09:39:03;;;;;;;6.00;4.68;;;;;;;16.92;26.67;97565.88;5117526;28;20487;-33
2022/03/27 09:41:38;;;;;;;7.53;5.47;;;;;;;16.93;26.44;97566.63;5117022;28;20027;-32
2022/03/27 09:44:07;;;;;;;6.78;4.70;;;;;;;16.94;26.56;97568.19;5117648;28;20356;-32
2022/03/27 09:46:56;;;;;;;7.40;4.45;;;;;;;16.93;26.76;97572.88;5098906;28;20110;-33
2022/03/27 09:49:39;;;;;;;6.88;4.90;;;;;;;16.97;26.70;97575.50;5116931;28;20126;-32
2022/03/27 09:52:24;;;;;;;7.60;4.70;;;;;;;17.01;26.68;97578.91;5117146;28;20032;-32
2022/03/27 09:55:03;;;;;;;7.07;5.43;;;;;;;17.05;26.50;97574.84;5116893;28;20027;-32
2022/03/27 09:57:42;;;;;;;7.13;5.20;;;;;;;17.05;26.61;97580.31;5116967;28;20023;-32
2022/03/27 10:00:13;;;;;;;7.00;5.82;;;;;;;16.99;26.63;97586.78;5116643;28;20039;-32
2022/03/27 10:02:43;;;;;;;7.03;5.00;;;;;;;16.99;26.69;97581.31;5116770;28;20076;-33
2022/03/27 10:05:19;;;;;;;8.07;5.60;;;;;;;17.05;26.28;97579.56;5117472;28;20391;-32
2022/03/27 10:07:48;;;;;;;8.20;5.50;;;;;;;17.04;26.37;97580.75;5116511;28;20027;-32
2022/03/27 10:10:19;;;;;;;7.63;5.60;;;;;;;17.10;26.23;97578.97;5098305;28;20027;-32
2022/03/27 10:12:47;;;;;;;6.40;5.03;;;;;;;17.05;26.33;97585.81;5116538;28;20031;-32
2022/03/27 10:15:43;;;;;;;7.78;5.72;;;;;;;17.04;26.35;97578.78;5116525;28;20099;-32
2022/03/27 10:18:14;;;;;;;7.03;5.55;;;;;;;17.09;26.18;97580.19;5098463;28;20067;-33
2022/03/27 10:20:40;;;;;;;8.63;6.03;;;;;;;17.09;26.16;97578.22;5119738;27;20064;-32
2022/03/27 10:23:27;;;;;;;10.00;5.95;;;;;;;17.02;26.10;97586.69;5125610;27;20143;-32
2022/03/27 10:25:55;;;;;;;8.07;5.95;;;;;;;17.19;26.21;97571.59;5135112;27;20392;-32
2022/03/27 10:28:21;;;;;;;8.93;6.03;;;;;;;17.19;25.95;97568.09;5134909;27;20026;-33
2022/03/27 10:30:51;;;;;;;8.00;5.85;;;;;;;17.21;25.67;97577.41;5133951;27;20102;-32
2022/03/27 10:33:18;;;;;;;10.13;6.25;;;;;;;17.15;25.54;97573.72;5134337;27;20030;-32
2022/03/27 10:36:24;;;;;;;9.70;5.95;;;;;;;17.12;25.63;97571.84;5133142;27;20027;-32
2022/03/27 10:38:55;;;;;;;9.80;6.45;;;;;;;17.16;25.62;97574.50;5050687;28;20025;-33
2022/03/27 10:41:59;;;;;;;7.82;5.55;;;;;;;17.18;25.68;97572.81;5050974;28;20045;-32
2022/03/27 10:44:52;;;;;;;9.65;6.10;;;;;;;17.18;25.68;97569.34;5050608;28;20028;-32
2022/03/27 10:47:20;;;;;;;7.43;5.80;;;;;;;17.21;25.84;97579.41;5047644;28;20147;-32
2022/03/27 10:50:21;;;;;;;8.15;6.18;;;;;;;17.15;25.81;97573.72;5050672;28;20369;-32
2022/03/27 10:52:54;;;;;;;7.68;6.03;;;;;;;17.20;25.72;97564.16;5036667;28;20046;-32
2022/03/27 10:55:19;;;;;;;8.90;5.85;;;;;;;17.15;25.46;97570.97;5038978;28;20726;-32
2022/03/27 10:57:46;;;;;;;8.75;6.18;;;;;;;17.22;25.74;97568.00;5031346;28;20049;-32
2022/03/27 11:00:14;;;;;;;8.93;6.20;;;;;;;17.26;25.44;97559.66;5048398;28;20060;-33
2022/03/27 11:02:49;;;;;;;8.90;6.20;;;;;;;17.23;25.50;97564.03;5049869;28;20397;-32
2022/03/27 11:05:34;;;;;;;9.27;5.90;;;;;;;17.24;25.43;97564.81;5050613;28;20029;-33
2022/03/27 11:08:18;;;;;;;9.50;6.35;;;;;;;17.25;25.49;97563.59;5050391;28;20076;-32
2022/03/27 11:10:52;;;;;;;11.32;6.22;;;;;;;17.28;25.25;97565.47;5050221;28;20033;-32
2022/03/27 11:13:27;;;;;;;8.30;5.88;;;;;;;17.29;25.20;97558.78;5051524;28;20033;-32
2022/03/27 11:16:11;;;;;;;9.18;5.63;;;;;;;17.28;25.06;97568.22;5093050;28;20040;-32
2022/03/27 11:18:40;;;;;;;10.65;6.25;;;;;;;17.23;24.48;97557.78;5093535;28;20031;-33
2022/03/27 11:21:07;;;;;;;10.77;6.10;;;;;;;17.31;24.54;97561.06;5092956;28;20057;-32
2022/03/27 11:23:38;;;;;;;11.35;6.43;;;;;;;17.31;24.55;97544.63;5092687;28;20023;-32
2022/03/27 11:26:24;;;;;;;8.55;5.65;;;;;;;17.41;24.61;97548.97;5092954;28;20031;-32
2022/03/27 11:28:55;;;;;;;11.63;6.05;;;;;;;17.40;24.26;97544.69;5079164;28;20441;-32
2022/03/27 11:31:32;;;;;;;8.70;5.78;;;;;;;17.36;24.63;97539.31;5092594;28;20034;-32
2022/03/27 11:34:14;;;;;;;9.25;5.95;;;;;;;17.36;24.34;97533.06;5090201;28;20020;-33
2022/03/27 11:36:45;;;;;;;8.80;5.47;;;;;;;17.36;24.34;97527.59;5092727;28;20028;-32
2022/03/27 11:39:29;;;;;;;8.95;5.60;;;;;;;17.39;23.80;97532.19;5092661;28;20069;-32
2022/03/27 11:41:55;;;;;;;9.40;5.45;;;;;;;17.41;24.12;97527.03;5091245;28;20415;-34
2022/03/27 11:44:23;;;;;;;8.05;5.68;;;;;;;17.49;23.93;97529.06;5092624;28;20039;-32
2022/03/27 11:46:54;;;;;;;7.25;5.80;;;;;;;17.47;23.84;97520.53;5092234;28;20670;-32
2022/03/27 11:49:22;;;;;;;10.52;6.70;;;;;;;17.35;23.77;97521.34;5090836;28;20036;-32